• Join FlightAware (Why Join?)
  • Login
  • US Flag 
04:45PM EDT


 

Airport Tracker/Info


-or-


 

Live Flight TrackerFlight Track Log ✈ EJA929 ✈ 08-Nov-2013 ✈ KRDU - KHPN

Flight Track Log - Related Links

Times and Time Zones

All times are in EST time to prevent confusion due to time zone crossing. See the EJA929 flight status page for this flight to view local times or setup timezone preferences in your user account.

Time Position Orientation Groundspeed Altitude Reporting Facility
EST Latitude Longitude Course Direction KTS MPH feet Rate Location/Type
04:17PM 35.9008 -78.7742 35° Northeast 231 266 1,700  Level Washington Center
04:18PM 35.9436 -78.7375 35° Northeast 212 244 4,000 4,020 Climbing Washington Center
04:19PM 36.0428 -78.7028 16° North 316 364 10,900 3,660 Climbing Washington Center
04:20PM 36.1206 -78.6803 13° North 295 339 12,400 1,440 Climbing Washington Center
04:21PM 36.2044 -78.6578 12° North 312 359 13,900 1,680 Climbing Washington Center
04:22PM 36.3000 -78.5969 27° Northeast 345 397 15,800 1,620 Climbing Washington Center
04:23PM 36.3789 -78.5228 37° Northeast 382 440 17,200 1,440 Climbing Washington Center
04:24PM 36.4731 -78.4256 40° Northeast 394 453 18,700 1,500 Climbing Washington Center
04:25PM 36.5650 -78.3358 38° Northeast 406 467 20,300 1,680 Climbing Washington Center
04:26PM 36.6586 -78.2458 38° Northeast 411 473 22,200 1,800 Climbing Washington Center
04:27PM 36.7547 -78.1481 39° Northeast 424 488 24,000 1,500 Climbing Washington Center
04:29PM 36.8607 -78.0470 28° Northeast  Level Estimated
04:29PM 36.9550 -77.9492 28° Northeast 455 524 26,700  Level Washington Center
04:30PM 37.0656 -77.8381 39° Northeast 480 552 27,500 840 Climbing Washington Center
04:31PM 37.1781 -77.7267 38° Northeast 495 570 28,500 1,260 Climbing Washington Center
04:32PM 37.2906 -77.6125 39° Northeast 506 582 30,000 1,500 Climbing Washington Center
04:33PM 37.4031 -77.5003 38° Northeast 516 594 31,500 1,320 Climbing Washington Center
04:34PM 37.5194 -77.3853 38° Northeast 516 594 32,700 720 Climbing Washington Center
04:35PM 37.6361 -77.2650 39° Northeast 528 608 33,000 120 Climbing Washington Center
04:36PM 37.7567 -77.1414 39° Northeast 539 620 33,000  Level Washington Center
04:37PM 37.8747 -77.0203 39° Northeast 545 627 33,000  Level Washington Center
04:38PM 37.9908 -76.8986 40° Northeast 545 627 33,000  Level Washington Center
04:39PM 38.1111 -76.7767 39° Northeast 545 627 33,000  Level Washington Center
04:40PM 38.2269 -76.6594 38° Northeast 545 627 33,000  Level Washington Center
04:41PM 38.3425 -76.5394 39° Northeast 539 620 33,000  Level Washington Center
04:42PM 38.4497 -76.4294 39° Northeast 539 620 33,000  Level Washington Center
04:43PM 38.5778 -76.2928 40° Northeast 544 626 33,000  Level Washington Center
04:44PM 38.6867 -76.1767 40° Northeast 554 638 33,000 -300 Level Washington Center
04:45PM 38.8039 -76.0578 38° Northeast 548 631 32,500 -1,200 Descending Washington Center
04:46PM 38.9192 -75.9331 40° Northeast 541 623 30,700 -1,800 Descending Washington Center
04:47PM 39.0319 -75.8133 39° Northeast 535 616 29,000 -900 Descending Washington Center
04:48PM 39.1425 -75.6961 39° Northeast 520 598 29,000  Level Washington Center
04:49PM 39.2531 -75.5756 40° Northeast 515 593 29,000  Level Washington Center
04:50PM 39.3633 -75.4547 40° Northeast 515 593 29,000 -780 Level Washington Center
04:51PM 39.4717 -75.3389 40° Northeast 510 587 27,500 -1,980 Descending Washington Center
04:53PM 39.6778 -75.0972 42° Northeast 507 583 23,000 -1,500 Descending New York Center
04:54PM 39.7219 -74.9083 73° East 482 555 23,000 -180 Level New York Center
04:55PM 39.7531 -74.7347 77° East 477 549 22,700 -720 Descending New York Center
04:56PM 39.7900 -74.5639 74° East 483 556 21,600 -900 Descending New York Center
04:57PM 39.8369 -74.3989 70° East 488 562 21,000 -300 Descending New York Center
04:58PM 39.9100 -74.2592 56° Northeast 470 541 21,000  Level New York Center
04:59PM 39.9911 -74.1197 53° Northeast 470 541 21,000  Level New York Center
05:01PM 40.1164 -73.8981 53° Northeast 482 555 21,000  Level Boston Center
05:02PM 40.1958 -73.7592 53° Northeast 480 552 21,000 -780 Level Boston Center
05:03PM 40.2708 -73.6228 54° Northeast 470 541 19,500 -2,040 Descending Boston Center
05:04PM 40.3628 -73.4711 51° Northeast 457 526 17,000 -1,260 Descending Boston Center
05:05PM 40.4672 -73.4214 20° North 416 479 17,000  Level Boston Center
05:06PM 40.5761 -73.3825 15° North 405 466 17,000  Level Boston Center
05:07PM 40.6833 -73.3333 19° North 394 453 17,000 -900 Level New York TRACON
05:08PM 40.7833 -73.3000 14° North 344 396 15,300 -1,620 Descending New York TRACON
05:09PM 40.8333 -73.2000 57° Northeast 315 362 13,700 -1,440 Descending New York TRACON
05:10PM 40.8833 -73.1167 52° Northeast 340 391 12,400 -1,260 Descending New York TRACON
05:11PM 40.9333 -73.0167 56° Northeast 301 346 11,100 -1,260 Descending New York TRACON
05:12PM 41.0000 -72.9667 30° Northeast 244 281 9,900 -1,560 Descending New York TRACON
05:13PM 41.0667 -72.9667 360° North 236 272 8,200 -1,860 Descending New York TRACON
05:14PM 41.1333 -72.9667 360° North 244 281 6,200 -1,920 Descending New York TRACON
05:15PM 41.1833 -72.9833 346° North 249 287 4,400 -1,080 Descending New York TRACON
05:16PM 41.1833 -73.0667 270° West 228 262 4,100 -180 Descending New York TRACON
05:17PM 41.1833 -73.1667 270° West 223 257 4,100  Level New York TRACON
05:18PM 41.1833 -73.2500 270° West 227 261 4,100  Level New York TRACON
05:19PM 41.1833 -73.3333 270° West 230 265 4,100 -360 Level New York TRACON
05:20PM 41.1333 -73.4000 225° Southwest 250 288 3,400 -660 Descending New York TRACON
05:21PM 41.0833 -73.4500 217° Southwest 213 245 2,800 -600 Descending New York TRACON
05:22PM 41.0500 -73.4833 217° Southwest 196 226 2,300 -360 Descending New York TRACON
05:23PM 41.0000 -73.5333 217° Southwest 214 246 2,100 -120 Descending New York TRACON
05:24PM 40.9500 -73.5833 217° Southwest 172 198 2,100  Level New York TRACON
05:25PM 40.9667 -73.6333 294° West 151 174 2,100 -60 Level New York TRACON
05:26PM 41.0000 -73.6500 339° North 132 152 2,000 -420 Descending New York TRACON
05:28PM 41.0333 -73.6833 323° Northwest 110 127 1,300 -720 Descending New York TRACON
05:29PM 41.0500 -73.7000 323° Northwest 117 135 600 -720 Descending New York TRACON